createdAt,value
2023-03-23T15:58:24.471Z,91888.00
2023-03-23T16:00:54.813Z,91874.00
2023-03-23T16:03:27.681Z,91874.25
2023-03-23T16:05:57.625Z,91883.34
2023-03-23T16:08:26.304Z,91872.72
2023-03-23T16:10:54.775Z,91886.34
2023-03-23T16:13:23.654Z,91873.56
2023-03-23T16:15:53.721Z,91883.97
2023-03-23T16:18:23.656Z,91884.19
2023-03-23T16:20:52.461Z,91878.06
2023-03-23T16:23:21.173Z,91875.03
2023-03-23T16:25:50.123Z,91867.78
2023-03-23T16:28:18.916Z,91869.75
2023-03-23T16:30:47.858Z,91869.59
2023-03-23T16:33:17.858Z,91877.81
2023-03-23T16:35:46.687Z,91877.72
2023-03-23T16:38:17.493Z,91882.03
2023-03-23T16:40:47.745Z,91882.13
2023-03-23T16:43:16.286Z,91885.53
2023-03-23T16:45:47.231Z,91885.47
2023-03-23T16:48:18.257Z,91886.00
2023-03-23T16:50:47.138Z,91887.06
2023-03-23T16:53:16.318Z,91886.69
2023-03-23T16:55:48.211Z,91894.19
2023-03-23T16:58:18.102Z,91886.16
2023-03-23T17:00:50.308Z,91894.50
2023-03-23T17:03:21.737Z,91886.09
2023-03-23T17:05:52.344Z,91893.78
2023-03-23T17:08:22.527Z,91890.75
2023-03-23T17:10:51.620Z,91897.28
2023-03-23T17:13:20.080Z,91884.09
2023-03-23T17:15:49.301Z,91885.00
2023-03-23T17:18:19.550Z,91894.09
2023-03-23T17:20:48.003Z,91899.91
2023-03-23T17:23:17.164Z,91891.09
2023-03-23T17:25:46.362Z,91891.75
2023-03-23T17:28:15.157Z,91888.34
2023-03-23T17:30:46.206Z,91889.09
2023-03-23T17:33:15.244Z,91887.00
2023-03-23T17:35:51.618Z,91893.22
2023-03-23T17:38:20.902Z,91894.72
2023-03-23T17:40:49.377Z,91892.00
2023-03-23T17:43:17.821Z,91902.69
2023-03-23T17:45:47.245Z,91898.88
2023-03-23T17:48:16.148Z,91901.94
2023-03-23T17:50:48.653Z,91897.97
2023-03-23T17:53:18.569Z,91900.91
2023-03-23T17:55:47.796Z,91905.25
2023-03-23T17:58:16.803Z,91903.56
2023-03-23T18:00:45.492Z,91906.78
2023-03-23T18:03:14.241Z,91903.84
2023-03-23T18:05:42.895Z,91912.28
2023-03-23T18:08:12.851Z,91905.44
2023-03-23T18:10:42.503Z,91909.06
2023-03-23T18:13:11.896Z,91913.94
2023-03-23T18:15:46.838Z,91913.66
2023-03-23T18:18:15.958Z,91911.47
2023-03-23T18:20:44.734Z,91912.53
2023-03-23T18:23:15.429Z,91924.00
2023-03-23T18:25:44.118Z,91914.66
2023-03-23T18:28:12.853Z,91903.41
2023-03-23T18:30:41.381Z,91904.03
2023-03-23T18:33:09.899Z,91909.69
2023-03-23T18:35:38.418Z,91911.16
2023-03-23T18:38:07.049Z,91901.69
2023-03-23T18:40:37.156Z,91911.72
2023-03-23T18:43:05.606Z,91901.78
2023-03-23T18:45:34.447Z,91900.72
2023-03-23T18:48:03.992Z,91906.09
2023-03-23T18:50:32.595Z,91902.25
2023-03-23T18:53:01.179Z,91901.59
2023-03-23T18:55:30.823Z,91907.47
2023-03-23T18:58:00.644Z,91902.50
2023-03-23T19:00:29.671Z,91899.84
2023-03-23T19:02:58.252Z,91911.56
2023-03-23T19:05:28.842Z,91906.00
2023-03-23T19:07:58.088Z,91914.19
2023-03-23T19:10:27.022Z,91913.28
2023-03-23T19:12:55.606Z,91918.53
2023-03-23T19:15:26.450Z,91914.63
2023-03-23T19:17:56.486Z,91918.22
2023-03-23T19:20:57.307Z,91915.56
2023-03-23T19:23:14.734Z,91904.94
2023-03-23T19:25:43.360Z,91904.94
2023-03-23T19:29:00.558Z,91908.25
2023-03-23T19:31:01.719Z,91903.28
2023-03-23T19:33:30.376Z,91900.75
2023-03-23T19:36:09.101Z,91899.69
2023-03-23T19:38:40.357Z,91902.09
2023-03-23T19:41:09.108Z,91893.47
2023-03-23T19:43:38.054Z,91888.19
2023-03-23T19:46:08.713Z,91892.34
2023-03-23T19:48:39.102Z,91897.09
2023-03-23T19:51:09.871Z,91888.69
2023-03-23T19:53:39.569Z,91880.81
2023-03-23T19:56:13.933Z,91882.59
2023-03-23T19:58:42.493Z,91879.09
2023-03-23T20:01:12.946Z,91872.28
2023-03-23T20:03:42.224Z,91872.78
2023-03-23T20:06:15.122Z,91874.97
2023-03-23T20:08:48.780Z,91869.63
2023-03-23T20:11:20.428Z,91866.03
2023-03-23T20:13:50.127Z,91872.47
2023-03-23T20:16:20.411Z,91866.34
2023-03-23T20:18:50.088Z,91860.72
2023-03-23T20:21:22.583Z,91872.88
2023-03-23T20:23:54.151Z,91859.59
2023-03-23T20:26:26.158Z,91855.84
2023-03-23T20:28:56.688Z,91861.81
2023-03-23T20:31:31.712Z,91858.47
2023-03-23T20:34:09.024Z,91857.06
2023-03-23T20:36:40.616Z,91860.81
2023-03-23T20:39:16.035Z,91858.91
2023-03-23T20:41:44.535Z,91856.94
2023-03-23T20:44:15.863Z,91854.31
2023-03-23T20:46:47.994Z,91854.41
2023-03-23T20:49:17.560Z,91847.34
2023-03-23T20:51:46.557Z,91849.59
2023-03-23T20:54:15.815Z,91842.22
2023-03-23T20:56:45.584Z,91837.59
2023-03-23T20:59:14.873Z,91844.03
2023-03-23T21:01:44.057Z,91841.97
2023-03-23T21:04:18.101Z,91833.56
2023-03-23T21:06:49.225Z,91831.72
2023-03-23T21:09:18.453Z,91829.09
2023-03-23T21:11:48.462Z,91833.47
2023-03-23T21:14:17.498Z,91820.78
2023-03-23T21:16:46.445Z,91828.22
2023-03-23T21:19:17.381Z,91819.06
2023-03-23T21:21:55.981Z,91820.25
2023-03-23T21:24:28.588Z,91811.03
2023-03-23T21:26:59.673Z,91797.84
2023-03-23T21:29:29.264Z,91788.84
2023-03-23T21:34:31.910Z,91785.25
2023-03-23T21:37:00.440Z,91779.88
2023-03-23T21:39:29.294Z,91763.09
2023-03-23T21:41:59.570Z,91764.72
2023-03-23T21:44:28.198Z,91756.09
2023-03-23T21:46:56.672Z,91745.81
2023-03-23T21:49:25.111Z,91761.78
2023-03-23T21:51:54.926Z,91755.09
2023-03-23T21:54:23.587Z,91745.44
2023-03-23T21:56:52.340Z,91757.28
2023-03-23T21:59:21.039Z,91752.28
2023-03-23T22:01:49.823Z,91752.84
2023-03-23T22:04:18.317Z,91748.66
2023-03-23T22:06:47.954Z,91745.81
2023-03-23T22:09:17.952Z,91740.13
2023-03-23T22:11:46.413Z,91755.09
2023-03-23T22:14:15.147Z,91748.53
2023-03-23T22:16:43.817Z,91750.78
2023-03-23T22:19:12.377Z,91754.94
2023-03-23T22:21:40.896Z,91744.19
2023-03-23T22:24:09.559Z,91744.88
2023-03-23T22:26:39.918Z,91740.28
2023-03-23T22:29:11.230Z,91745.59
2023-03-23T22:31:40.998Z,91738.94
2023-03-23T22:34:09.517Z,91728.06
2023-03-23T22:36:38.899Z,91729.00
2023-03-23T22:39:08.975Z,91727.63
2023-03-23T22:41:41.541Z,91729.91
2023-03-23T22:44:13.771Z,91738.69
2023-03-23T22:46:43.303Z,91746.81
2023-03-23T22:49:11.848Z,91774.53
2023-03-23T22:51:41.233Z,91753.78
2023-03-23T22:54:11.615Z,91760.25
2023-03-23T22:56:41.675Z,91748.06
2023-03-23T22:59:12.436Z,91735.78
2023-03-23T23:01:40.987Z,91729.22
2023-03-23T23:04:09.841Z,91733.72
2023-03-23T23:06:38.393Z,91748.47
2023-03-23T23:09:07.267Z,91745.69
2023-03-23T23:11:35.894Z,91743.97
2023-03-23T23:14:05.797Z,91755.19
2023-03-23T23:16:34.654Z,91742.72
2023-03-23T23:19:03.282Z,91739.38
2023-03-23T23:21:31.850Z,91737.84
2023-03-23T23:24:00.312Z,91738.25
2023-03-23T23:26:29.010Z,91739.81
2023-03-23T23:28:57.477Z,91741.69
2023-03-23T23:31:32.363Z,91734.50
2023-03-23T23:34:03.254Z,91739.09
2023-03-23T23:36:32.546Z,91726.84
2023-03-23T23:39:03.703Z,91726.38
2023-03-23T23:41:32.149Z,91719.09
2023-03-23T23:44:01.405Z,91729.59
2023-03-23T23:46:32.356Z,91726.22
2023-03-23T23:49:01.728Z,91718.53
2023-03-23T23:51:34.346Z,91720.34
2023-03-23T23:54:02.863Z,91716.88
2023-03-23T23:56:31.690Z,91705.56
2023-03-23T23:59:00.398Z,91713.06
